Time;durP1;ratioP1;P1;durP2;ratioP2;P2;SDS_P1;SDS_P2;PMS_P1;PMS_P2;Temp;Humidity;BMP_temperature;BMP_pressure;BME280_temperature;BME280_humidity;BME280_pressure;Samples;Min_cycle;Max_cycle;Signal;HPM_P1;HPM_P2
2022/01/12 00:01:29;;;;;;;14.73;5.55;;;-5.00;99.90;;;;;;4951505;29;20111;-76
2022/01/12 00:03:55;;;;;;;17.52;5.43;;;-4.60;99.90;;;;;;4933473;29;20050;-76
2022/01/12 00:06:21;;;;;;;20.65;6.70;;;-3.30;99.90;;;;;;4950692;29;20546;-76
2022/01/12 00:08:48;;;;;;;12.75;6.03;;;-4.60;99.90;;;;;;4950740;28;20039;-76
2022/01/12 00:11:14;;;;;;;20.50;6.35;;;-4.10;99.90;;;;;;4951073;29;20106;-77
2022/01/12 00:13:40;;;;;;;13.55;5.28;;;-3.50;99.90;;;;;;4950956;29;20122;-77
2022/01/12 00:16:05;;;;;;;20.77;5.40;;;-5.00;99.90;;;;;;4951058;29;20078;-76
2022/01/12 00:18:33;;;;;;;20.33;5.93;;;-5.20;99.90;;;;;;4950813;29;20019;-76
2022/01/12 00:20:59;;;;;;;14.20;6.70;;;-5.30;99.90;;;;;;4950389;29;20059;-76
2022/01/12 00:23:25;;;;;;;12.02;5.60;;;-5.40;99.90;;;;;;4933090;29;20419;-76
2022/01/12 00:26:01;;;;;;;14.90;4.32;;;-5.60;99.90;;;;;;4951143;29;20031;-76
2022/01/12 00:34:00;;;;;;;10.73;3.60;;;-5.30;99.90;;;;;;4950224;29;20093;-76
2022/01/12 00:36:26;;;;;;;12.80;5.88;;;-5.30;99.90;;;;;;4950283;29;20065;-76
2022/01/12 00:38:53;;;;;;;15.45;5.60;;;-5.20;99.90;;;;;;4950506;29;20040;-76
2022/01/12 00:41:19;;;;;;;11.25;4.15;;;-5.20;99.90;;;;;;4950334;29;20031;-76
2022/01/12 00:43:49;;;;;;;10.75;4.63;;;-5.10;99.90;;;;;;4950425;29;20519;-75
2022/01/12 00:46:15;;;;;;;13.00;4.38;;;-5.10;99.90;;;;;;4950317;29;20559;-76
2022/01/12 00:48:41;;;;;;;9.70;4.85;;;-5.20;99.90;;;;;;4949925;29;20023;-75
2022/01/12 00:51:10;;;;;;;12.88;5.43;;;-5.20;99.90;;;;;;4932874;29;20373;-76
2022/01/12 00:53:36;;;;;;;16.73;5.68;;;-5.30;99.90;;;;;;4950049;28;20027;-76
2022/01/12 00:56:02;;;;;;;15.00;4.40;;;-5.40;99.90;;;;;;4949893;28;20062;-76
2022/01/12 00:58:28;;;;;;;9.93;4.68;;;-5.30;99.90;;;;;;4948501;29;20511;-76
2022/01/12 01:00:53;;;;;;;11.60;3.95;;;-5.40;99.90;;;;;;4948222;29;20171;-75
2022/01/12 01:03:19;;;;;;;9.70;4.40;;;-5.50;99.90;;;;;;4949836;28;20048;-76
2022/01/12 01:05:45;;;;;;;10.10;3.55;;;-5.60;99.90;;;;;;4951807;29;20475;-76
2022/01/12 01:08:10;;;;;;;7.45;3.20;;;-5.60;99.90;;;;;;4951048;28;20357;-76
2022/01/12 01:10:46;;;;;;;10.65;4.00;;;-5.60;99.90;;;;;;4949865;29;20032;-76
2022/01/12 01:13:18;;;;;;;10.73;4.35;;;-5.70;99.90;;;;;;4949709;28;20019;-76
2022/01/12 01:26:33;;;;;;;9.65;4.60;;;-5.60;99.90;;;;;;4949792;29;20395;-75
2022/01/12 01:28:58;;;;;;;14.57;5.32;;;-6.70;99.90;;;;;;4949879;29;20031;-76
2022/01/12 01:31:30;;;;;;;12.60;4.60;;;-5.80;99.90;;;;;;4948830;29;20110;-77
2022/01/12 01:33:55;;;;;;;12.13;3.97;;;-5.80;99.90;;;;;;4949102;28;20023;-76
2022/01/12 01:36:26;;;;;;;16.20;4.63;;;-5.80;99.90;;;;;;4949065;28;20494;-76
2022/01/12 01:38:52;;;;;;;13.18;4.15;;;-5.60;99.90;;;;;;4963950;28;20030;-76
2022/01/12 01:41:18;;;;;;;9.23;4.47;;;-3.50;99.90;;;;;;4949286;29;20442;-75
2022/01/12 01:44:32;;;;;;;12.57;4.57;;;-5.40;99.90;;;;;;4949196;28;20023;-76
2022/01/12 01:55:07;;;;;;;13.68;5.35;;;-5.10;99.90;;;;;;4948890;29;20439;-75
2022/01/12 01:57:34;;;;;;;17.80;6.63;;;-5.30;99.90;;;;;;4949215;29;20687;-76
2022/01/12 02:00:00;;;;;;;13.02;5.43;;;-5.20;99.90;;;;;;4948730;29;20096;-76
2022/01/12 02:02:27;;;;;;;13.25;5.63;;;-5.30;99.90;;;;;;4931423;29;20427;-76
2022/01/12 02:04:53;;;;;;;19.00;5.25;;;-5.40;99.90;;;;;;4931361;29;20073;-76
2022/01/12 02:07:18;;;;;;;18.10;5.88;;;-5.50;99.90;;;;;;4931178;29;20503;-75
2022/01/12 02:09:44;;;;;;;21.20;6.35;;;-5.40;99.90;;;;;;4931482;29;20031;-75
2022/01/12 02:12:12;;;;;;;18.35;6.28;;;-5.20;99.90;;;;;;4948937;29;20039;-76
2022/01/12 02:14:38;;;;;;;15.70;5.93;;;-5.30;99.90;;;;;;4948925;29;20547;-76
2022/01/12 02:17:10;;;;;;;13.68;5.63;;;-5.30;99.90;;;;;;4949342;29;20099;-76
2022/01/12 02:36:17;;;;;;;11.07;5.32;;;-5.90;99.90;;;;;;4952788;29;20126;-75
2022/01/12 02:41:26;;;;;;;15.48;5.78;;;-5.90;99.90;;;;;;4952602;29;20111;-76
2022/01/12 02:54:47;;;;;;;19.98;6.65;;;-4.50;99.90;;;;;;4952288;28;20384;-75
2022/01/12 02:57:13;;;;;;;25.08;7.32;;;-4.40;99.90;;;;;;4952198;28;20037;-74
2022/01/12 02:59:50;;;;;;;24.88;8.45;;;-4.40;99.90;;;;;;4952194;28;20066;-74
2022/01/12 03:02:31;;;;;;;52.10;6.93;;;-4.40;99.90;;;;;;4950087;29;20122;-73
2022/01/12 03:05:46;;;;;;;42.15;5.25;;;-1.50;99.90;;;;;;4951405;28;20042;-76
2022/01/12 03:07:47;;;;;;;42.55;5.07;;;-4.40;99.90;;;;;;4951151;29;20031;-75
2022/01/12 03:10:14;;;;;;;29.23;6.35;;;-4.30;99.90;;;;;;4949914;29;20399;-78
2022/01/12 03:12:42;;;;;;;21.17;6.22;;;-4.30;99.90;;;;;;4950064;29;20118;-75
2022/01/12 03:15:09;;;;;;;17.75;5.82;;;-2.70;99.90;;;;;;4950179;29;20115;-74
2022/01/12 03:17:35;;;;;;;16.25;4.80;;;-4.30;99.90;;;;;;4946867;28;20031;-75
2022/01/12 03:20:02;;;;;;;47.63;7.18;;;-4.30;99.90;;;;;;4968844;28;20448;-75
2022/01/12 03:22:28;;;;;;;43.50;6.82;;;-4.40;99.90;;;;;;4973460;28;20396;-75
2022/01/12 03:24:53;;;;;;;17.17;5.13;;;-4.40;99.90;;;;;;4957502;28;20489;-75
2022/01/12 03:27:21;;;;;;;15.90;4.88;;;-4.40;99.90;;;;;;4961262;28;20067;-75
2022/01/12 03:29:50;;;;;;;40.60;5.78;;;-2.90;99.90;;;;;;4971588;28;20054;-74
2022/01/12 03:32:20;;;;;;;17.35;4.40;;;-4.30;99.90;;;;;;4961159;28;20024;-77
2022/01/12 03:34:54;;;;;;;20.05;6.18;;;-4.40;99.90;;;;;;4951592;29;20419;-75
2022/01/12 03:37:41;;;;;;;14.00;5.15;;;-3.40;99.90;;;;;;4967028;28;20030;-76
2022/01/12 03:40:09;;;;;;;17.40;5.18;;;-3.40;99.90;;;;;;4952988;29;20444;-75
2022/01/12 03:42:35;;;;;;;9.88;3.78;;;-4.60;99.90;;;;;;4934593;29;20035;-76
2022/01/12 03:45:01;;;;;;;35.83;5.03;;;-4.50;99.90;;;;;;4953126;29;20036;-75
2022/01/12 03:47:26;;;;;;;18.10;6.07;;;-4.40;99.90;;;;;;4953318;28;20035;-74
2022/01/12 03:49:52;;;;;;;24.50;4.97;;;-4.60;99.90;;;;;;4953664;29;20477;-75
2022/01/12 03:52:18;;;;;;;15.40;4.40;;;-4.70;99.90;;;;;;4953208;29;20028;-75
2022/01/12 03:54:43;;;;;;;13.55;4.93;;;-3.80;99.90;;;;;;4951774;29;20030;-75
2022/01/12 03:57:09;;;;;;;15.05;4.90;;;-3.90;99.90;;;;;;4952036;28;20085;-75
2022/01/12 03:59:35;;;;;;;11.48;4.88;;;-4.90;99.90;;;;;;4945705;28;20453;-76
2022/01/12 04:02:00;;;;;;;13.02;4.82;;;-5.00;99.90;;;;;;4955559;28;20027;-75
2022/01/12 04:04:37;;;;;;;8.25;4.53;;;-2.70;99.90;;;;;;4952297;28;20062;-75
2022/01/12 04:09:47;;;;;;;9.15;4.00;;;-4.90;99.90;;;;;;4957635;28;20367;-75
2022/01/12 04:12:14;;;;;;;22.13;6.18;;;-7.30;99.90;;;;;;4949825;28;20780;-75
2022/01/12 04:14:40;;;;;;;11.95;4.63;;;-5.60;99.90;;;;;;4959032;28;20050;-75
2022/01/12 04:17:06;;;;;;;29.60;3.92;;;-5.60;99.90;;;;;;4954090;28;20027;-75
2022/01/12 04:19:31;;;;;;;10.98;4.57;;;-5.60;99.90;;;;;;4955200;28;20570;-75
2022/01/12 04:22:07;;;;;;;14.57;4.30;;;-4.20;99.90;;;;;;4948037;28;20251;-75
2022/01/12 04:24:33;;;;;;;12.98;4.47;;;-5.60;99.90;;;;;;4954396;28;20031;-75
2022/01/12 04:26:59;;;;;;;12.30;4.72;;;-5.60;99.90;;;;;;4954325;28;20610;-75
2022/01/12 04:29:25;;;;;;;14.95;4.78;;;-5.60;99.90;;;;;;4929294;28;20130;-76
2022/01/12 04:31:50;;;;;;;10.00;5.05;;;-5.60;99.90;;;;;;4951082;28;20751;-74
2022/01/12 04:34:16;;;;;;;9.90;3.70;;;-5.60;99.90;;;;;;4945628;29;20471;-76
2022/01/12 04:36:42;;;;;;;13.18;4.97;;;-5.50;99.90;;;;;;4932340;29;20118;-75
2022/01/12 04:39:07;;;;;;;13.65;4.85;;;-5.40;99.90;;;;;;4950008;29;20130;-74
2022/01/12 04:41:33;;;;;;;11.50;4.18;;;-5.40;99.90;;;;;;4949884;29;20027;-74
2022/01/12 04:44:01;;;;;;;14.93;5.57;;;-5.40;99.90;;;;;;4950770;28;20043;-74
2022/01/12 04:46:38;;;;;;;19.00;3.58;;;-5.30;99.90;;;;;;4949851;29;20388;-75
2022/01/12 04:49:26;;;;;;;10.05;3.63;;;-5.30;99.90;;;;;;4951205;28;20027;-74
2022/01/12 04:51:52;;;;;;;14.73;4.20;;;-5.20;99.90;;;;;;4950369;28;20027;-75
2022/01/12 04:54:18;;;;;;;23.20;4.45;;;-5.10;99.90;;;;;;4948539;28;20035;-75
2022/01/12 04:56:44;;;;;;;8.88;3.22;;;-5.00;99.90;;;;;;4949182;29;20023;-76
2022/01/12 04:59:09;;;;;;;48.53;6.55;;;-5.00;99.90;;;;;;4949404;29;20794;-76
2022/01/12 05:01:47;;;;;;;34.25;4.72;;;-5.00;99.90;;;;;;4950017;29;20071;-75
2022/01/12 05:07:22;;;;;;;24.55;5.13;;;-5.00;99.90;;;;;;4949420;29;20070;-74
2022/01/12 05:15:16;;;;;;;41.85;5.28;;;-2.60;99.90;;;;;;4949759;29;20023;-74
2022/01/12 05:17:42;;;;;;;21.85;5.13;;;-5.10;99.90;;;;;;4949020;29;20150;-76
2022/01/12 05:20:08;;;;;;;33.25;4.80;;;-5.10;99.90;;;;;;4949424;29;20084;-77
2022/01/12 05:22:34;;;;;;;52.65;5.93;;;-5.00;99.90;;;;;;4949341;29;20046;-77
2022/01/12 05:24:59;;;;;;;20.85;4.55;;;-5.00;99.90;;;;;;4949754;29;20063;-78
2022/01/12 05:27:25;;;;;;;41.08;7.47;;;-5.00;99.90;;;;;;4934360;29;20027;-77
2022/01/12 05:29:51;;;;;;;43.85;5.30;;;-5.00;99.90;;;;;;4949289;29;20039;-76
2022/01/12 05:32:16;;;;;;;24.52;4.82;;;-5.00;99.90;;;;;;4931417;29;20599;-76
2022/01/12 05:34:43;;;;;;;15.70;5.85;;;-5.00;99.90;;;;;;4950447;29;20027;-77
2022/01/12 05:37:09;;;;;;;35.53;6.38;;;-4.70;99.90;;;;;;4950304;29;20498;-77
2022/01/12 05:39:34;;;;;;;20.48;6.07;;;-4.90;99.90;;;;;;4950657;29;20039;-77
2022/01/12 05:42:00;;;;;;;38.85;6.60;;;-4.80;99.90;;;;;;4950574;29;20460;-77
2022/01/12 05:44:26;;;;;;;20.27;6.68;;;-4.70;99.90;;;;;;4933256;29;20103;-77
2022/01/12 05:46:54;;;;;;;24.85;6.63;;;-4.70;99.90;;;;;;4950428;29;20117;-77
2022/01/12 05:49:35;;;;;;;20.38;6.22;;;-4.70;99.90;;;;;;4951465;29;20027;-77
2022/01/12 05:52:03;;;;;;;26.48;7.00;;;-4.60;99.90;;;;;;4951998;29;20278;-77
2022/01/12 05:54:29;;;;;;;28.88;5.55;;;-4.60;99.90;;;;;;4951985;29;20039;-76
2022/01/12 05:56:55;;;;;;;15.75;5.60;;;-4.70;99.90;;;;;;4951838;29;20027;-77
2022/01/12 05:59:21;;;;;;;12.20;3.85;;;-4.70;99.90;;;;;;4951086;29;20058;-77
2022/01/12 06:01:47;;;;;;;16.63;5.50;;;-4.70;99.90;;;;;;4951802;29;20515;-77
2022/01/12 06:04:13;;;;;;;16.83;5.05;;;-4.30;99.90;;;;;;4934652;29;20109;-77
2022/01/12 06:06:38;;;;;;;20.58;6.32;;;-4.80;99.90;;;;;;4952090;28;20027;-76
2022/01/12 06:09:04;;;;;;;16.05;5.30;;;-2.60;99.90;;;;;;4951944;29;20034;-77
2022/01/12 06:11:30;;;;;;;21.85;6.18;;;-4.90;99.90;;;;;;4951838;29;20039;-77
2022/01/12 06:13:57;;;;;;;21.52;6.75;;;-4.80;99.90;;;;;;4934564;29;20023;-77
2022/01/12 06:16:22;;;;;;;18.23;5.18;;;-5.00;99.90;;;;;;4951188;29;20023;-77
2022/01/12 06:18:48;;;;;;;16.35;6.55;;;-4.40;99.90;;;;;;4934190;29;20054;-77
2022/01/12 06:21:14;;;;;;;21.63;5.68;;;-3.80;99.90;;;;;;4951852;29;20030;-76
2022/01/12 06:23:39;;;;;;;24.95;6.43;;;-4.20;99.90;;;;;;4951651;29;20126;-76
2022/01/12 06:26:05;;;;;;;21.23;7.28;;;-5.20;99.90;;;;;;4934277;29;20031;-76
2022/01/12 06:31:17;;;;;;;23.92;5.38;;;-3.80;99.90;;;;;;4951721;29;20148;-77
2022/01/12 06:33:48;;;;;;;11.43;5.53;;;-5.40;99.90;;;;;;4934186;29;20051;-77
2022/01/12 06:36:17;;;;;;;14.45;4.28;;;-5.50;99.90;;;;;;4951655;29;20081;-77
2022/01/12 06:38:43;;;;;;;15.45;5.80;;;-5.50;99.90;;;;;;4934448;29;20020;-77
2022/01/12 06:41:11;;;;;;;12.98;4.97;;;-5.70;99.90;;;;;;4951684;29;20032;-77
2022/01/12 06:43:37;;;;;;;17.98;5.60;;;-5.70;99.90;;;;;;4951718;29;20437;-77
2022/01/12 06:46:06;;;;;;;14.45;5.13;;;-5.90;99.90;;;;;;4934002;29;20039;-77
2022/01/12 06:48:32;;;;;;;14.90;5.80;;;-6.00;99.90;;;;;;4934392;29;20034;-77
2022/01/12 06:50:58;;;;;;;12.40;3.88;;;-6.20;99.90;;;;;;4951773;29;20067;-77
2022/01/12 06:53:24;;;;;;;15.75;4.72;;;-6.20;99.90;;;;;;4946911;28;20071;-76
2022/01/12 06:55:49;;;;;;;14.77;4.97;;;-6.20;99.90;;;;;;4964142;28;20110;-76
2022/01/12 06:58:15;;;;;;;13.57;4.32;;;-6.30;99.90;;;;;;4968351;28;20026;-76
2022/01/12 07:00:41;;;;;;;10.90;3.80;;;-6.30;99.90;;;;;;4955891;28;20494;-75
2022/01/12 07:03:07;;;;;;;12.15;3.95;;;-6.40;99.90;;;;;;4948207;29;20090;-76
2022/01/12 07:05:33;;;;;;;14.25;4.63;;;-6.50;99.90;;;;;;4947630;29;20118;-75
2022/01/12 07:07:59;;;;;;;14.88;4.93;;;-6.50;99.90;;;;;;4947960;28;20027;-75
2022/01/12 07:10:24;;;;;;;16.85;5.47;;;-6.60;99.90;;;;;;4948789;29;20035;-77
2022/01/12 07:12:50;;;;;;;10.13;3.42;;;-6.20;99.90;;;;;;4947965;28;20035;-75
2022/01/12 07:15:16;;;;;;;11.63;4.32;;;-6.80;99.90;;;;;;4947633;29;20090;-75
2022/01/12 07:17:42;;;;;;;15.82;5.03;;;-6.80;99.90;;;;;;4948855;28;20035;-75
2022/01/12 07:20:08;;;;;;;14.27;4.80;;;-6.90;99.90;;;;;;4951468;29;20062;-76
2022/01/12 07:22:34;;;;;;;12.15;4.72;;;-6.80;99.90;;;;;;4951079;29;20566;-75
2022/01/12 07:25:00;;;;;;;11.35;3.13;;;-6.90;99.90;;;;;;4951081;29;20039;-75
2022/01/12 07:27:29;;;;;;;14.77;4.53;;;-6.90;99.90;;;;;;4951340;29;20078;-76
2022/01/12 07:29:54;;;;;;;10.63;4.28;;;-6.90;99.90;;;;;;4951347;29;20299;-76
2022/01/12 07:32:20;;;;;;;9.70;3.88;;;-6.80;99.90;;;;;;4951566;29;20616;-78
2022/01/12 07:34:46;;;;;;;12.68;4.55;;;-4.30;99.90;;;;;;4948695;29;20027;-75
2022/01/12 07:37:12;;;;;;;15.18;4.32;;;-3.80;99.90;;;;;;4951567;29;20039;-75
2022/01/12 07:39:38;;;;;;;15.00;4.80;;;-4.80;99.90;;;;;;4930047;29;20431;-74
2022/01/12 07:42:04;;;;;;;16.42;4.43;;;-6.90;99.90;;;;;;4951179;29;20035;-74
2022/01/12 07:44:30;;;;;;;14.95;5.75;;;-6.90;99.90;;;;;;4952208;29;20492;-76
2022/01/12 07:46:56;;;;;;;7.55;3.90;;;-6.80;99.90;;;;;;4949569;29;20023;-79
2022/01/12 07:49:22;;;;;;;16.38;4.30;;;-6.80;99.90;;;;;;4937909;29;20031;-78
2022/01/12 07:51:47;;;;;;;18.17;4.28;;;-6.90;99.90;;;;;;4951097;29;20046;-77
2022/01/12 07:54:13;;;;;;;15.77;4.53;;;-6.90;99.90;;;;;;4934112;29;20065;-78
2022/01/12 07:56:39;;;;;;;12.05;3.45;;;-6.80;99.90;;;;;;4949561;29;20034;-76
2022/01/12 07:59:05;;;;;;;11.75;4.55;;;-6.30;99.90;;;;;;4949250;29;20023;-75
2022/01/12 08:01:30;;;;;;;15.90;4.45;;;-6.20;99.90;;;;;;4931713;29;20035;-80
2022/01/12 08:03:56;;;;;;;9.95;3.75;;;-6.70;99.90;;;;;;4932256;29;20372;-78
2022/01/12 08:06:22;;;;;;;16.52;4.65;;;-6.70;99.90;;;;;;4949177;29;20031;-76
2022/01/12 08:08:48;;;;;;;14.82;4.95;;;-6.20;99.90;;;;;;4949418;29;20106;-75
2022/01/12 08:11:13;;;;;;;12.73;4.20;;;-6.60;99.90;;;;;;4951848;29;20027;-76
2022/01/12 08:13:39;;;;;;;10.88;4.80;;;-6.60;99.90;;;;;;4953062;29;20027;-77
2022/01/12 08:16:05;;;;;;;12.70;4.40;;;-6.50;99.90;;;;;;4952623;29;20034;-75
2022/01/12 08:18:31;;;;;;;8.48;4.95;;;-6.40;99.90;;;;;;4953151;29;20031;-76
2022/01/12 08:20:57;;;;;;;14.55;5.15;;;-6.30;99.90;;;;;;4948395;29;20042;-76
2022/01/12 08:23:23;;;;;;;19.73;5.55;;;-6.20;99.90;;;;;;4931339;28;20031;-77
2022/01/12 08:25:48;;;;;;;15.98;5.32;;;-6.10;99.90;;;;;;4934342;29;20043;-78
2022/01/12 08:28:14;;;;;;;19.20;5.60;;;-6.00;99.90;;;;;;4938491;28;20026;-76
2022/01/12 08:30:40;;;;;;;9.63;4.75;;;-6.00;99.90;;;;;;4949626;29;20321;-75
2022/01/12 08:33:07;;;;;;;16.92;6.35;;;-5.90;99.90;;;;;;4930338;29;20122;-76
2022/01/12 08:35:33;;;;;;;15.98;4.95;;;-5.80;99.90;;;;;;4948242;29;20063;-76
2022/01/12 08:37:59;;;;;;;11.98;5.90;;;-5.60;99.90;;;;;;4943859;29;20289;-75
2022/01/12 08:40:26;;;;;;;13.25;5.38;;;-5.40;99.90;;;;;;4936138;29;20024;-75
2022/01/12 08:42:51;;;;;;;20.35;5.72;;;-5.30;99.90;;;;;;4929420;29;20032;-76
2022/01/12 08:45:18;;;;;;;17.00;5.28;;;-5.20;99.90;;;;;;4929295;29;20472;-76
2022/01/12 08:47:45;;;;;;;15.73;6.40;;;-5.10;99.90;;;;;;4931083;29;20027;-75
2022/01/12 08:50:11;;;;;;;16.45;5.80;;;-4.90;99.90;;;;;;4946259;29;20035;-74
2022/01/12 08:52:40;;;;;;;22.92;7.45;;;-4.80;99.90;;;;;;4949566;28;20023;-75
2022/01/12 08:55:06;;;;;;;18.60;7.90;;;-4.50;99.90;;;;;;4946768;28;20676;-75
2022/01/12 08:57:32;;;;;;;17.50;6.90;;;-4.20;99.90;;;;;;4923082;29;20271;-76
2022/01/12 09:00:00;;;;;;;19.92;7.63;;;-4.00;99.90;;;;;;4949706;29;20424;-75
2022/01/12 09:02:26;;;;;;;18.63;7.20;;;-2.70;99.90;;;;;;4949682;29;20027;-75
2022/01/12 09:04:52;;;;;;;23.42;9.10;;;-3.10;99.90;;;;;;4932125;29;20043;-77
2022/01/12 09:07:18;;;;;;;18.98;8.13;;;-3.00;99.90;;;;;;4929324;29;20055;-76
2022/01/12 09:09:44;;;;;;;20.35;9.98;;;-3.00;99.90;;;;;;4955130;28;20117;-77
2022/01/12 09:12:10;;;;;;;50.03;15.13;;;-1.80;99.90;;;;;;4950119;29;20110;-76
2022/01/12 09:14:36;;;;;;;22.02;8.02;;;-2.80;99.90;;;;;;4948312;28;20189;-76
2022/01/12 09:17:02;;;;;;;20.58;8.07;;;-1.90;99.90;;;;;;4948138;29;20244;-76
2022/01/12 09:19:29;;;;;;;20.92;8.52;;;-2.50;99.90;;;;;;4948613;28;20474;-76
2022/01/12 09:21:56;;;;;;;30.75;9.98;;;-1.80;99.90;;;;;;4947776;29;20480;-76
2022/01/12 09:24:22;;;;;;;27.50;9.73;;;-1.70;99.90;;;;;;4948608;28;20094;-76
2022/01/12 09:26:49;;;;;;;22.85;10.48;;;-2.10;99.90;;;;;;4947546;29;20066;-76
2022/01/12 09:29:17;;;;;;;29.85;11.90;;;-2.10;99.90;;;;;;4963238;28;20033;-76
2022/01/12 09:31:43;;;;;;;22.30;10.77;;;-2.00;99.90;;;;;;4948815;28;20030;-76
2022/01/12 09:34:09;;;;;;;21.48;8.77;;;-2.10;99.90;;;;;;4947215;29;20027;-76
2022/01/12 09:36:34;;;;;;;26.85;11.07;;;-1.50;99.90;;;;;;4963411;28;20034;-75
2022/01/12 09:39:00;;;;;;;21.00;10.32;;;-2.10;99.90;;;;;;4947785;29;20128;-75
2022/01/12 09:41:27;;;;;;;19.70;9.35;;;-1.40;99.90;;;;;;4948177;28;20250;-76
2022/01/12 09:43:54;;;;;;;27.10;11.30;;;-2.10;99.90;;;;;;4948393;29;20097;-76
2022/01/12 09:46:22;;;;;;;22.83;7.93;;;-1.80;99.90;;;;;;4948272;29;20031;-76
2022/01/12 09:48:48;;;;;;;23.48;8.38;;;-2.00;99.90;;;;;;4948089;28;20539;-76
2022/01/12 09:51:14;;;;;;;24.15;10.15;;;-1.30;99.90;;;;;;4948533;29;20039;-76
2022/01/12 09:53:41;;;;;;;23.98;8.55;;;-1.80;99.90;;;;;;4948122;29;20327;-76
2022/01/12 09:56:28;;;;;;;19.45;7.38;;;-1.70;99.90;;;;;;4948866;29;20027;-76
2022/01/12 09:58:57;;;;;;;26.05;9.70;;;-1.60;99.90;;;;;;4947946;29;20034;-76
2022/01/12 10:01:32;;;;;;;12.70;6.03;;;-1.20;99.90;;;;;;4931032;29;20054;-76
2022/01/12 10:04:17;;;;;;;24.10;9.32;;;-1.50;99.90;;;;;;4948202;29;20628;-77
2022/01/12 10:06:46;;;;;;;11.70;6.05;;;-1.50;99.90;;;;;;4957036;28;20479;-78
2022/01/12 10:09:13;;;;;;;20.85;8.68;;;-1.10;99.90;;;;;;4927878;29;20395;-79
2022/01/12 10:11:52;;;;;;;17.05;7.20;;;-1.50;99.90;;;;;;4948166;28;20127;-76
2022/01/12 10:14:18;;;;;;;12.93;6.13;;;-1.40;99.90;;;;;;4946717;29;20028;-75
2022/01/12 10:16:56;;;;;;;19.67;9.45;;;-1.40;99.90;;;;;;4950204;29;20404;-75
2022/01/12 10:19:33;;;;;;;13.13;6.50;;;-1.40;99.90;;;;;;4948004;29;20051;-75
2022/01/12 10:22:01;;;;;;;22.20;8.82;;;-1.30;99.90;;;;;;4947873;29;20035;-76
2022/01/12 10:24:28;;;;;;;14.00;6.28;;;-1.30;99.90;;;;;;4946671;29;20519;-77
2022/01/12 10:26:55;;;;;;;12.52;6.72;;;-1.30;99.90;;;;;;4946548;29;20106;-76
2022/01/12 10:29:28;;;;;;;17.65;7.88;;;-1.30;99.90;;;;;;4946142;29;20362;-76
2022/01/12 10:32:00;;;;;;;20.05;7.47;;;-1.20;99.90;;;;;;4946435;29;20031;-76
2022/01/12 10:34:35;;;;;;;15.38;7.22;;;-1.20;99.90;;;;;;4945771;29;20530;-76
2022/01/12 10:37:04;;;;;;;21.27;6.40;;;-1.10;99.90;;;;;;4929425;29;20058;-76
2022/01/12 10:39:30;;;;;;;14.07;6.82;;;-1.00;99.90;;;;;;4947772;28;20465;-75
2022/01/12 10:42:01;;;;;;;13.82;6.60;;;-1.10;99.90;;;;;;4944856;28;20126;-75
2022/01/12 10:44:32;;;;;;;8.57;5.65;;;-1.00;99.90;;;;;;4946487;28;20128;-77
2022/01/12 10:47:26;;;;;;;15.15;6.78;;;-1.00;99.90;;;;;;4955532;28;20027;-76
2022/01/12 10:49:55;;;;;;;17.20;6.95;;;-1.00;99.90;;;;;;4936127;28;20508;-75
2022/01/12 10:52:23;;;;;;;14.33;7.03;;;-0.90;99.90;;;;;;4938236;28;20094;-75
2022/01/12 10:54:58;;;;;;;13.73;6.80;;;-0.90;99.90;;;;;;4943564;28;20122;-75
2022/01/12 10:57:35;;;;;;;15.93;6.50;;;-0.80;99.90;;;;;;4960412;28;20543;-75
2022/01/12 11:00:19;;;;;;;15.48;7.20;;;-0.80;99.90;;;;;;4960665;28;20023;-76
2022/01/12 11:02:57;;;;;;;13.45;6.47;;;-0.70;99.90;;;;;;4947457;28;20030;-79
2022/01/12 11:05:25;;;;;;;15.95;7.07;;;-0.60;99.90;;;;;;4942691;28;20055;-76
2022/01/12 11:07:52;;;;;;;8.32;4.47;;;-0.70;99.90;;;;;;4976940;28;20094;-76
2022/01/12 11:10:19;;;;;;;16.42;6.80;;;-0.70;99.90;;;;;;4954412;28;20089;-76
2022/01/12 11:12:46;;;;;;;14.35;6.68;;;-0.60;99.90;;;;;;4963979;28;20543;-76
2022/01/12 11:15:17;;;;;;;16.35;7.78;;;-0.70;99.90;;;;;;4952295;28;20042;-76
2022/01/12 11:17:46;;;;;;;12.40;6.50;;;-0.40;99.90;;;;;;4970082;28;20113;-76
2022/01/12 11:20:24;;;;;;;8.50;5.03;;;-0.50;99.90;;;;;;4953447;28;20047;-76
2022/01/12 11:22:56;;;;;;;9.15;4.50;;;1.30;99.90;;;;;;4971352;28;20018;-76
2022/01/12 11:25:29;;;;;;;14.40;7.35;;;-0.60;99.90;;;;;;4966707;28;20093;-76
2022/01/12 11:28:08;;;;;;;14.40;6.13;;;-0.50;99.90;;;;;;4933525;29;20034;-78
2022/01/12 11:30:34;;;;;;;14.27;6.47;;;-0.60;99.90;;;;;;4950777;29;20122;-77
2022/01/12 11:33:04;;;;;;;17.27;6.63;;;-0.40;99.90;;;;;;4931967;29;20225;-77
2022/01/12 11:35:33;;;;;;;24.02;9.10;;;-0.50;99.90;;;;;;4934457;28;20043;-76
2022/01/12 11:38:00;;;;;;;17.83;7.80;;;-0.40;99.90;;;;;;4946058;28;20534;-77
2022/01/12 11:40:40;;;;;;;15.20;7.60;;;-0.40;99.90;;;;;;4938968;28;20055;-79
2022/01/12 11:43:29;;;;;;;26.55;10.55;;;-0.30;99.90;;;;;;4964361;28;20022;-76
2022/01/12 11:46:05;;;;;;;16.80;7.53;;;-0.20;99.90;;;;;;4967859;28;20035;-76
2022/01/12 11:48:40;;;;;;;21.35;8.43;;;-0.20;99.90;;;;;;4958405;28;20046;-76
2022/01/12 11:51:06;;;;;;;13.75;6.57;;;-0.20;99.90;;;;;;4967372;28;20054;-76
2022/01/12 11:53:42;;;;;;;14.07;7.00;;;-0.20;99.90;;;;;;4952966;28;20519;-76
2022/01/12 11:56:18;;;;;;;7.78;4.30;;;-0.20;99.90;;;;;;4950476;29;20180;-77
2022/01/12 11:59:09;;;;;;;11.10;5.72;;;-0.10;99.90;;;;;;4950745;29;20023;-77
2022/01/12 12:02:09;;;;;;;13.98;6.35;;;0.00;99.90;;;;;;4947106;28;20574;-77
2022/01/12 12:04:34;;;;;;;16.05;7.78;;;-0.10;99.90;;;;;;4943633;28;20494;-77
2022/01/12 12:07:03;;;;;;;18.58;7.68;;;0.80;99.90;;;;;;4969572;28;20027;-78
2022/01/12 12:09:39;;;;;;;17.90;6.80;;;0.00;99.90;;;;;;4952614;28;20372;-77
2022/01/12 12:12:17;;;;;;;12.88;7.22;;;0.00;99.90;;;;;;4970135;28;20037;-77
2022/01/12 12:14:46;;;;;;;15.93;7.40;;;0.00;99.90;;;;;;4969587;28;20050;-76
2022/01/12 12:17:12;;;;;;;16.35;7.40;;;0.10;99.90;;;;;;4969825;28;20566;-76
2022/01/12 12:19:38;;;;;;;12.27;6.35;;;0.30;99.90;;;;;;4969536;28;20570;-79
2022/01/12 12:22:13;;;;;;;16.38;6.35;;;0.20;99.90;;;;;;4951505;28;20034;-77
2022/01/12 12:24:39;;;;;;;12.60;6.03;;;0.20;99.90;;;;;;4968119;28;20484;-77
2022/01/12 12:27:09;;;;;;;15.50;5.25;;;0.30;99.90;;;;;;4955977;28;20027;-76
2022/01/12 12:29:36;;;;;;;13.35;5.72;;;0.20;99.90;;;;;;4940255;29;20027;-77
2022/01/12 12:32:02;;;;;;;14.60;6.00;;;0.20;99.90;;;;;;4966700;28;20027;-77
2022/01/12 12:34:29;;;;;;;15.52;7.47;;;0.20;99.90;;;;;;4939741;28;20037;-78
2022/01/12 12:37:04;;;;;;;14.77;6.07;;;1.20;99.90;;;;;;4956803;28;20033;-77
2022/01/12 12:39:33;;;;;;;12.07;6.80;;;0.40;99.90;;;;;;4961639;28;20027;-77
2022/01/12 12:42:01;;;;;;;19.20;7.50;;;0.50;99.90;;;;;;4962512;28;20405;-78
2022/01/12 12:44:31;;;;;;;13.45;6.60;;;0.40;99.90;;;;;;4960110;28;20031;-78
2022/01/12 12:47:13;;;;;;;12.55;6.03;;;0.60;99.90;;;;;;4947239;28;20039;-78
2022/01/12 12:49:56;;;;;;;13.68;5.85;;;0.60;99.90;;;;;;4955385;28;20027;-77
2022/01/12 12:52:30;;;;;;;12.57;6.10;;;0.60;99.90;;;;;;4949734;29;20019;-79
2022/01/12 12:54:59;;;;;;;12.90;6.03;;;0.50;99.90;;;;;;4956599;29;20070;-78
2022/01/12 12:57:26;;;;;;;14.23;6.10;;;0.50;99.90;;;;;;4940790;29;20191;-77
2022/01/12 13:00:13;;;;;;;17.13;6.35;;;0.50;99.90;;;;;;4935513;29;20027;-77
2022/01/12 13:02:42;;;;;;;16.52;7.05;;;0.40;99.90;;;;;;4934157;29;20035;-78
2022/01/12 13:05:10;;;;;;;19.52;7.95;;;0.40;99.90;;;;;;4948447;29;20390;-80
2022/01/12 13:07:41;;;;;;;12.03;5.27;;;0.40;99.90;;;;;;4955517;28;20027;-77
2022/01/12 13:10:14;;;;;;;13.45;4.20;;;0.60;99.90;;;;;;4941178;28;20031;-77
2022/01/12 13:12:55;;;;;;;9.95;4.38;;;0.60;99.90;;;;;;4953469;28;20030;-78
2022/01/12 13:15:22;;;;;;;14.43;5.82;;;0.60;99.90;;;;;;4937560;28;20125;-76
2022/01/12 13:17:56;;;;;;;8.55;4.28;;;1.10;99.90;;;;;;4960344;28;20037;-77
2022/01/12 13:23:00;;;;;;;11.15;5.65;;;2.40;99.90;;;;;;4978685;28;20098;-77
2022/01/12 13:25:26;;;;;;;11.98;5.80;;;2.70;99.90;;;;;;4971675;28;20061;-77
2022/01/12 13:27:52;;;;;;;9.25;4.90;;;3.30;99.90;;;;;;4967957;28;20022;-77
2022/01/12 13:30:30;;;;;;;15.40;6.93;;;3.50;99.90;;;;;;4967322;28;20403;-79
2022/01/12 13:32:57;;;;;;;8.15;4.93;;;3.90;99.90;;;;;;4966613;28;20351;-77
2022/01/12 13:35:28;;;;;;;8.73;4.05;;;5.00;96.90;;;;;;4967051;28;20463;-77
2022/01/12 13:37:56;;;;;;;7.30;3.75;;;5.90;90.90;;;;;;4950025;28;20510;-77
2022/01/12 13:40:22;;;;;;;7.32;3.60;;;6.10;87.60;;;;;;4950015;28;20054;-77
2022/01/12 13:42:49;;;;;;;5.85;4.20;;;6.00;83.50;;;;;;4948751;28;20472;-78
2022/01/12 13:45:18;;;;;;;7.70;4.05;;;5.60;84.80;;;;;;4968072;28;20046;-77
2022/01/12 13:47:49;;;;;;;10.27;5.53;;;5.10;87.40;;;;;;4950955;28;20027;-77
2022/01/12 13:50:17;;;;;;;10.63;5.13;;;4.10;91.00;;;;;;4950023;28;20530;-77
2022/01/12 13:52:55;;;;;;;10.05;5.65;;;4.30;91.90;;;;;;4931495;29;20507;-77
2022/01/12 13:55:20;;;;;;;9.38;5.40;;;4.40;91.90;;;;;;4931951;29;20031;-78
2022/01/12 13:57:58;;;;;;;10.77;5.38;;;4.40;91.90;;;;;;4931240;29;20027;-77